Time;durP1;ratioP1;P1;durP2;ratioP2;P2;SDS_P1;SDS_P2;PMS_P1;PMS_P2;Temp;Humidity;BMP_temperature;BMP_pressure;BME280_temperature;BME280_humidity;BME280_pressure;Samples;Min_cycle;Max_cycle;Signal;HPM_P1;HPM_P2
2022/11/17 00:01:54;;;;;;;10.65;8.30;;;4.40;31.00;;;4.32;84.17;100115.63;5079593;28;20206;-83
2022/11/17 00:34:07;;;;;;;14.52;9.48;;;4.10;99.90;;;3.92;84.91;100086.53;5008567;28;20195;-83
2022/11/17 00:36:44;;;;;;;10.95;8.80;;;4.00;99.90;;;4.01;84.62;100089.97;5075143;28;20207;-84
2022/11/17 00:39:15;;;;;;;12.35;7.55;;;4.00;1.00;;;3.99;84.48;100081.28;5076477;28;20194;-84
2022/11/17 00:41:47;;;;;;;10.02;7.10;;;4.00;99.90;;;4.02;84.29;100083.59;5075242;28;20176;-82
2022/11/17 00:44:17;;;;;;;13.27;8.77;;;4.00;99.90;;;3.99;84.21;100074.06;5075469;28;20216;-83
2022/11/17 00:46:49;;;;;;;11.57;9.30;;;;;;;3.94;84.61;100079.97;5075514;28;20188;-83
2022/11/17 00:49:23;;;;;;;11.32;9.00;;;;;;;3.99;84.61;100075.91;5075591;28;20281;-83
2022/11/17 00:51:54;;;;;;;11.75;9.32;;;;;;;3.99;84.78;100075.91;5075072;28;20255;-84
2022/11/17 00:54:24;;;;;;;12.68;9.70;;;;;;;4.01;84.56;100072.06;5089301;28;20200;-83
2022/11/17 00:56:55;;;;;;;13.52;8.52;;;;;;;4.01;84.36;100079.25;5078699;28;20201;-83
2022/11/17 00:59:25;;;;;;;12.20;8.98;;;;;;;3.98;84.20;100069.72;5098183;28;20225;-83
2022/11/17 01:01:56;;;;;;;16.13;10.05;;;;;;;3.99;84.06;100076.75;5098725;28;20206;-84
2022/11/17 01:04:26;;;;;;;12.52;8.57;;;;;;;4.02;83.69;100075.56;5097889;28;20219;-84
2022/11/17 01:06:58;;;;;;;12.60;10.30;;;;;;;3.90;83.85;100076.00;5103850;28;20196;-82
2022/11/17 01:09:29;;;;;;;12.23;6.72;;;4.00;99.90;;;3.88;83.46;100079.84;5094567;28;20208;-84
2022/11/17 01:11:59;;;;;;;11.60;7.68;;;3.90;11.90;;;3.96;83.51;100073.63;5079030;28;20196;-83
2022/11/17 01:14:32;;;;;;;9.27;8.38;;;4.00;96.50;;;3.94;83.50;100071.09;5075305;28;20250;-83
2022/11/17 01:17:05;;;;;;;8.55;6.38;;;4.00;1.00;;;3.94;82.90;100077.28;5077932;28;20215;-84
2022/11/17 01:19:39;;;;;;;14.13;7.82;;;4.00;1.00;;;3.91;83.02;100075.00;5094452;28;20204;-83
2022/11/17 01:22:08;;;;;;;9.70;7.65;;;4.00;1.00;;;3.81;83.83;100065.53;5077034;28;20196;-84
2022/11/17 01:24:40;;;;;;;10.45;7.13;;;3.90;1.00;;;3.79;83.39;100063.03;5077013;28;20219;-83
2022/11/17 01:27:10;;;;;;;9.88;7.28;;;3.90;1.00;;;3.81;83.74;100055.66;5082233;28;20187;-85
2022/11/17 01:29:40;;;;;;;12.15;7.65;;;3.90;95.50;;;3.83;83.39;100066.16;5080470;28;20204;-84
2022/11/17 01:32:11;;;;;;;16.42;9.25;;;3.90;66.00;;;3.87;83.12;100073.66;5064087;28;20200;-83
2022/11/17 01:34:46;;;;;;;10.45;7.95;;;3.90;1.00;;;3.85;83.58;100069.50;5059756;28;20222;-82
2022/11/17 01:37:21;;;;;;;13.85;7.40;;;3.90;1.00;;;3.84;83.51;100066.00;5056703;28;20180;-82
2022/11/17 01:39:51;;;;;;;7.50;6.00;;;3.90;24.40;;;3.84;83.13;100059.81;5055824;28;20200;-83
2022/11/17 01:42:28;;;;;;;9.60;7.53;;;3.90;1.80;;;3.80;83.23;100040.59;5070748;28;20189;-84
2022/11/17 01:45:04;;;;;;;9.85;7.15;;;3.90;1.00;;;3.77;83.32;100054.34;5052607;28;20219;-82
2022/11/17 01:47:43;;;;;;;8.18;7.38;;;3.90;1.00;;;3.81;83.25;100047.63;5053694;28;20215;-85
2022/11/17 01:50:52;;;;;;;9.48;7.78;;;3.80;1.00;;;3.82;82.80;100046.63;5070531;28;20188;-83
2022/11/17 01:53:27;;;;;;;12.32;9.15;;;3.90;1.00;;;3.84;82.96;100036.56;5054825;28;20173;-84
2022/11/17 01:56:03;;;;;;;8.13;7.32;;;3.90;1.00;;;3.82;83.01;100037.75;5058797;28;20219;-82
2022/11/17 01:58:41;;;;;;;11.80;7.30;;;3.90;1.00;;;3.75;82.87;100034.13;5059532;28;20195;-82
2022/11/17 02:01:10;;;;;;;10.32;7.28;;;3.80;1.00;;;3.84;83.42;100041.91;5063274;28;20281;-82
2022/11/17 02:03:44;;;;;;;9.85;6.90;;;3.90;1.00;;;3.81;82.68;100042.28;5080378;28;20171;-84
2022/11/17 02:06:28;;;;;;;9.52;8.15;;;3.80;1.00;;;3.89;83.85;100041.38;5063838;28;20203;-85
2022/11/17 02:09:02;;;;;;;8.55;6.95;;;3.90;1.00;;;3.84;82.18;100033.88;5025807;28;20214;-79
2022/11/17 02:11:34;;;;;;;11.52;7.53;;;3.90;1.00;;;3.84;83.64;100041.91;5031908;28;20177;-78
2022/11/17 02:14:05;;;;;;;10.82;7.88;;;3.90;1.00;;;3.80;82.65;100039.78;5034239;28;20175;-80
2022/11/17 02:16:35;;;;;;;10.75;8.38;;;3.90;1.00;;;3.79;82.92;100038.09;5019663;28;20186;-79
2022/11/17 02:19:07;;;;;;;9.30;6.97;;;3.80;1.00;;;3.70;82.78;100026.63;5042635;28;20193;-79
2022/11/17 02:22:27;;;;;;;7.00;6.30;;;3.80;1.00;;;3.77;83.39;100046.31;5040786;28;20695;-79
2022/11/17 02:25:30;;;;;;;10.00;6.82;;;3.80;1.00;;;3.74;83.11;100052.03;5041486;28;20186;-79
2022/11/17 02:28:19;;;;;;;11.52;7.28;;;3.80;1.00;;;3.68;83.10;100023.28;5024859;28;20247;-79
2022/11/17 02:31:08;;;;;;;10.30;7.07;;;3.80;1.00;;;3.70;82.68;100040.00;5009152;28;20289;-79
2022/11/17 02:33:54;;;;;;;11.43;6.25;;;3.80;1.00;;;3.74;83.07;100029.78;5035624;28;20217;-79
2022/11/17 02:36:36;;;;;;;11.55;7.43;;;3.80;1.00;;;3.62;82.93;100013.31;5039766;28;20177;-79
2022/11/17 02:39:14;;;;;;;7.53;6.10;;;3.80;1.00;;;3.56;83.16;100022.06;5039994;28;20189;-79
2022/11/17 02:41:54;;;;;;;10.27;7.40;;;3.60;1.00;;;3.56;83.24;100021.22;5038432;28;20207;-78
2022/11/17 02:44:32;;;;;;;10.27;6.85;;;3.60;66.60;;;3.53;83.84;100021.59;5033982;28;20175;-79
2022/11/17 02:47:08;;;;;;;10.40;8.23;;;3.60;93.60;;;3.54;83.82;100029.41;5020120;28;20271;-79
2022/11/17 02:49:42;;;;;;;11.90;9.25;;;3.60;99.90;;;3.53;83.52;100016.25;5020293;28;20200;-79
2022/11/17 02:52:12;;;;;;;13.45;8.65;;;3.60;99.90;;;3.59;83.31;100002.13;5023616;28;20197;-78
2022/11/17 02:54:41;;;;;;;9.98;7.50;;;3.60;99.90;;;3.70;83.40;100010.59;5039570;28;20186;-80
2022/11/17 02:57:28;;;;;;;13.07;8.23;;;3.70;99.90;;;3.53;83.52;100001.03;5038630;28;20578;-80
2022/11/17 03:00:02;;;;;;;10.40;8.15;;;3.70;32.20;;;3.60;83.53;99995.78;5032850;28;20201;-80
2022/11/17 03:03:10;;;;;;;8.95;7.78;;;3.70;99.90;;;3.69;82.93;100000.03;5043949;28;20228;-80
2022/11/17 03:05:54;;;;;;;9.43;8.40;;;3.70;99.90;;;3.68;83.24;99993.84;5022821;28;20678;-79
2022/11/17 03:08:41;;;;;;;9.25;8.10;;;3.70;52.80;;;3.66;83.12;99990.56;5029746;28;20224;-79
2022/11/17 03:11:13;;;;;;;12.63;8.77;;;3.70;27.50;;;3.65;82.88;99986.22;5041054;28;20182;-78
2022/11/17 03:13:54;;;;;;;11.52;7.97;;;3.70;3.80;;;3.60;83.27;99990.41;5038692;28;20181;-79
2022/11/17 03:16:35;;;;;;;10.75;8.30;;;3.70;1.00;;;3.68;83.24;99993.84;5036980;28;20231;-79
2022/11/17 03:19:16;;;;;;;10.98;8.13;;;3.70;1.00;;;3.65;83.26;99998.75;5039808;28;20185;-80
2022/11/17 03:21:53;;;;;;;10.27;6.07;;;3.70;1.00;;;3.63;83.33;100012.28;5039806;28;20181;-79
2022/11/17 03:24:30;;;;;;;11.90;8.48;;;3.70;1.00;;;3.60;83.24;99995.78;5040805;28;20185;-79
2022/11/17 03:27:05;;;;;;;10.77;6.72;;;3.70;1.00;;;3.58;83.42;99987.13;5041594;28;20217;-80
2022/11/17 03:29:41;;;;;;;11.65;7.72;;;3.70;19.60;;;3.62;82.97;99988.41;5026546;28;20300;-79
2022/11/17 03:32:14;;;;;;;8.80;7.82;;;3.70;7.60;;;3.59;83.48;99986.91;5040807;28;20180;-78
2022/11/17 03:34:51;;;;;;;10.55;7.80;;;3.70;7.50;;;3.63;83.58;99982.88;5040464;28;20268;-80
2022/11/17 03:37:24;;;;;;;13.63;9.85;;;3.70;21.40;;;3.61;83.21;99987.59;5041359;28;20238;-79
2022/11/17 03:39:58;;;;;;;10.50;7.75;;;3.70;6.70;;;3.69;83.31;99984.00;5041806;28;20221;-79
2022/11/17 03:42:31;;;;;;;8.70;6.78;;;3.70;99.90;;;3.71;83.24;99992.69;5025701;28;20260;-80
2022/11/17 03:45:09;;;;;;;9.48;7.10;;;3.70;79.20;;;3.76;82.93;99980.44;5038687;28;20220;-78
2022/11/17 03:47:42;;;;;;;9.55;7.30;;;3.80;40.80;;;3.70;83.11;99986.50;5023179;28;20573;-78
2022/11/17 03:50:18;;;;;;;13.98;8.40;;;3.80;1.00;;;3.65;83.31;99986.22;5021041;28;20308;-79
2022/11/17 03:52:49;;;;;;;10.95;7.55;;;3.70;1.00;;;3.65;83.39;99986.22;5040338;28;20177;-78
2022/11/17 03:55:19;;;;;;;10.60;7.10;;;3.70;68.80;;;3.65;83.37;99978.19;5036911;28;20174;-78
2022/11/17 03:57:57;;;;;;;10.40;7.43;;;3.70;99.90;;;3.60;83.59;99977.03;5038521;28;20727;-79
2022/11/17 04:00:26;;;;;;;8.27;7.38;;;3.70;99.90;;;3.63;83.48;99979.38;5037065;28;20208;-79
2022/11/17 04:02:58;;;;;;;13.80;8.75;;;3.70;99.90;;;3.71;83.20;99980.16;5037839;28;20197;-78
2022/11/17 04:05:27;;;;;;;8.95;7.78;;;3.80;99.90;;;3.83;82.98;99981.34;5037556;28;20189;-80
2022/11/17 04:07:56;;;;;;;9.38;7.90;;;3.80;99.90;;;3.76;83.21;99974.25;5037986;28;20251;-79
2022/11/17 04:10:25;;;;;;;9.77;8.27;;;3.80;91.20;;;3.76;83.07;99979.59;5042697;28;20217;-79
2022/11/17 04:16:00;;;;;;;10.88;8.13;;;3.80;65.30;;;3.72;83.89;99979.13;5037478;28;20213;-79
2022/11/17 04:18:30;;;;;;;14.10;9.80;;;3.80;99.90;;;3.79;83.84;99980.06;5036529;28;20292;-79
2022/11/17 04:21:01;;;;;;;10.85;9.07;;;3.80;99.90;;;3.75;84.02;99973.41;5037554;28;20216;-81
2022/11/17 04:23:29;;;;;;;11.85;9.50;;;3.80;99.90;;;3.78;84.03;99975.72;5042226;28;20190;-78
2022/11/17 04:28:48;;;;;;;11.32;8.25;;;3.80;99.90;;;3.73;84.20;99954.03;5036088;28;20170;-79
2022/11/17 04:31:20;;;;;;;9.35;7.35;;;3.80;99.90;;;3.72;84.19;99952.38;5037732;28;20216;-78
2022/11/17 04:33:52;;;;;;;8.50;6.32;;;3.80;99.90;;;3.76;84.22;99968.91;5045454;28;20184;-79
2022/11/17 04:36:24;;;;;;;9.52;6.45;;;3.80;99.90;;;3.65;84.85;99962.13;5046923;28;20249;-79
2022/11/17 04:38:55;;;;;;;11.05;9.57;;;3.80;99.90;;;3.65;84.52;99951.41;5046186;28;20193;-79
2022/11/17 04:44:16;;;;;;;12.57;9.15;;;3.80;1.00;;;3.73;84.51;99959.38;5047169;28;20579;-79
2022/11/17 04:46:46;;;;;;;8.98;8.00;;;3.70;1.00;;;3.72;84.73;99952.38;5037922;28;20274;-79
2022/11/17 04:49:18;;;;;;;11.90;8.98;;;3.70;1.00;;;3.72;84.74;99947.03;5035307;28;20193;-80
2022/11/17 04:51:48;;;;;;;12.52;8.07;;;3.80;1.00;;;3.72;85.05;99951.53;5019683;28;20198;-80
2022/11/17 04:54:20;;;;;;;7.90;7.05;;;3.80;22.90;;;3.68;85.01;99940.34;5036722;28;20287;-79
2022/11/17 04:56:49;;;;;;;11.77;8.10;;;3.80;83.20;;;3.71;85.23;99940.00;5037794;28;20624;-79
2022/11/17 04:59:18;;;;;;;16.52;9.30;;;3.80;99.90;;;3.86;84.18;99948.06;5023045;28;20201;-79
2022/11/17 05:01:47;;;;;;;10.73;8.98;;;3.80;99.90;;;3.70;84.85;99949.03;5015993;28;20183;-79
2022/11/17 05:07:03;;;;;;;13.65;8.65;;;3.80;39.10;;;3.84;84.68;99942.06;5025239;28;20233;-79
2022/11/17 05:09:33;;;;;;;11.68;8.50;;;3.90;99.90;;;3.85;84.60;99952.59;5036634;28;20197;-80
2022/11/17 05:14:49;;;;;;;11.45;9.00;;;3.80;1.00;;;3.74;85.27;99944.16;5018786;28;20219;-80
2022/11/17 05:17:17;;;;;;;11.85;8.95;;;3.80;56.70;;;3.77;84.61;99928.59;5034861;28;20227;-80
2022/11/17 05:19:48;;;;;;;10.98;7.80;;;3.80;99.90;;;3.83;85.07;99937.69;5038199;28;20186;-79
2022/11/17 05:25:07;;;;;;;11.00;8.00;;;3.90;99.70;;;3.79;85.12;99952.47;5042319;28;20170;-80
2022/11/17 05:27:36;;;;;;;12.57;10.93;;;3.80;99.90;;;3.80;85.06;99943.44;5040750;28;20203;-78
2022/11/17 05:30:08;;;;;;;8.75;7.78;;;3.90;99.90;;;3.86;85.11;99924.81;5042026;28;20205;-78
2022/11/17 05:32:37;;;;;;;11.27;8.63;;;3.90;99.90;;;3.79;85.22;99915.00;5038695;28;20204;-79
2022/11/17 05:35:08;;;;;;;13.13;8.25;;;3.90;99.90;;;3.74;84.93;99912.88;5046825;28;20169;-78
2022/11/17 05:37:37;;;;;;;11.60;9.02;;;3.80;38.10;;;3.85;85.55;99920.47;5033460;28;20728;-77
2022/11/17 05:40:08;;;;;;;12.18;9.15;;;3.90;99.90;;;3.92;85.19;99916.03;5036535;28;20233;-79
2022/11/17 05:42:37;;;;;;;14.40;8.90;;;3.90;99.90;;;3.89;84.84;99910.22;5032461;28;20221;-79
2022/11/17 05:45:07;;;;;;;12.43;9.25;;;3.90;99.90;;;3.81;85.10;99904.97;5041528;28;20213;-78
2022/11/17 05:47:36;;;;;;;12.35;9.35;;;3.90;99.90;;;3.87;84.95;99915.75;5039933;28;20232;-78
2022/11/17 05:50:07;;;;;;;12.13;8.60;;;3.90;99.90;;;3.83;85.15;99901.06;5038821;28;20197;-78
2022/11/17 05:52:39;;;;;;;14.82;10.32;;;3.90;99.90;;;3.87;85.55;99902.38;5020094;28;20237;-79
2022/11/17 05:55:08;;;;;;;14.82;10.07;;;3.90;99.90;;;3.88;85.59;99896.00;5032489;28;20213;-79
2022/11/17 05:57:37;;;;;;;9.60;8.20;;;3.90;99.90;;;3.92;85.42;99905.31;5022150;28;20252;-79
2022/11/17 06:00:08;;;;;;;10.60;8.45;;;4.00;99.90;;;3.96;85.26;99915.69;5025897;28;20196;-79
2022/11/17 06:02:50;;;;;;;11.80;8.25;;;4.00;99.90;;;3.99;85.25;99907.28;5036835;28;20583;-79
2022/11/17 06:05:22;;;;;;;14.43;9.52;;;4.00;1.00;;;3.98;84.78;99901.09;5045780;28;20188;-79
2022/11/17 06:07:53;;;;;;;12.07;9.00;;;4.10;99.90;;;4.03;84.78;99905.88;5046651;28;20221;-79
2022/11/17 06:10:22;;;;;;;13.57;10.23;;;4.10;99.90;;;4.02;85.09;99918.44;5041374;28;20216;-79
2022/11/17 06:12:51;;;;;;;14.70;9.35;;;4.10;44.60;;;3.98;84.91;99905.59;5040825;28;20185;-79
2022/11/17 06:15:20;;;;;;;14.85;9.40;;;4.00;99.90;;;3.96;85.28;99907.66;5031941;28;20235;-81
2022/11/17 06:17:54;;;;;;;11.27;8.93;;;4.00;99.90;;;3.97;85.09;99901.28;5041260;28;20688;-80
2022/11/17 06:20:28;;;;;;;17.10;10.73;;;4.00;99.90;;;4.00;85.35;99907.09;5043014;28;20264;-79
2022/11/17 06:23:02;;;;;;;13.20;8.98;;;4.00;99.90;;;4.04;84.92;99910.22;5027099;28;20178;-78
2022/11/17 06:25:34;;;;;;;11.80;8.23;;;4.10;99.90;;;4.04;84.85;99902.19;5031912;28;20192;-80
2022/11/17 06:28:08;;;;;;;13.30;9.38;;;4.10;99.90;;;4.09;84.68;99900.63;5044124;28;20206;-80
2022/11/17 06:30:38;;;;;;;15.77;11.10;;;4.10;99.90;;;4.05;85.06;99904.72;5041710;28;20205;-79
2022/11/17 06:33:12;;;;;;;14.25;9.48;;;4.10;99.90;;;4.05;85.25;99910.06;5038814;28;20539;-79
2022/11/17 06:35:44;;;;;;;13.80;9.55;;;4.10;99.90;;;4.12;85.28;99904.78;5039805;28;20189;-78
2022/11/17 06:38:12;;;;;;;14.30;8.90;;;4.10;99.90;;;4.15;85.22;99904.44;5020808;28;20225;-80
2022/11/17 06:40:42;;;;;;;14.80;8.70;;;4.20;99.90;;;4.16;84.88;99890.88;5022437;28;20221;-79
2022/11/17 06:43:11;;;;;;;15.68;11.30;;;4.20;53.90;;;4.29;84.42;99895.56;5022377;28;20265;-80
2022/11/17 06:45:42;;;;;;;13.52;10.60;;;4.20;1.00;;;4.20;84.34;99883.28;4976187;28;20239;-80
2022/11/17 06:48:14;;;;;;;14.35;10.57;;;4.30;1.00;;;4.27;84.33;99884.19;5018401;28;20218;-79
2022/11/17 06:50:44;;;;;;;18.40;12.25;;;4.30;1.00;;;4.27;84.34;99882.34;5021557;28;20261;-80
2022/11/17 06:53:13;;;;;;;16.33;11.65;;;4.30;1.00;;;4.28;84.33;99888.53;5021516;28;20208;-79
2022/11/17 06:55:42;;;;;;;13.38;9.48;;;4.30;1.00;;;4.20;84.61;99885.97;5037614;28;20205;-78
2022/11/17 06:58:11;;;;;;;12.45;9.60;;;4.30;1.00;;;4.28;84.31;99877.81;5040761;28;20232;-81
2022/11/17 07:00:40;;;;;;;19.35;11.90;;;4.30;1.00;;;4.28;84.45;99881.34;5040072;28;20268;-82
2022/11/17 07:03:10;;;;;;;15.38;9.60;;;4.30;1.00;;;4.40;83.99;99884.38;5049026;28;20186;-81
2022/11/17 07:05:39;;;;;;;15.70;10.23;;;4.40;1.00;;;4.30;83.89;99867.75;5050543;28;20563;-80
2022/11/17 07:08:10;;;;;;;15.95;9.90;;;4.40;99.90;;;4.40;83.81;99871.00;5049724;28;20224;-81
2022/11/17 07:10:39;;;;;;;12.93;9.32;;;4.40;99.90;;;4.47;83.49;99863.00;5031735;28;20193;-80
2022/11/17 07:13:15;;;;;;;15.95;9.80;;;4.50;99.90;;;4.47;83.24;99855.81;5047956;28;20197;-80
2022/11/17 07:15:44;;;;;;;13.57;10.57;;;4.50;99.90;;;4.48;82.84;99857.47;5030852;28;20235;-81
2022/11/17 07:18:12;;;;;;;16.70;9.93;;;4.50;99.90;;;4.48;82.80;99851.28;5038770;28;20205;-80
2022/11/17 07:20:42;;;;;;;12.85;10.75;;;4.50;99.90;;;4.43;83.22;99854.53;5031474;28;20190;-83
2022/11/17 07:23:13;;;;;;;15.98;10.85;;;4.50;71.10;;;4.43;83.43;99859.88;5048640;28;20204;-83
2022/11/17 07:25:45;;;;;;;15.52;10.35;;;4.50;98.70;;;4.48;83.07;99862.84;5018691;28;20229;-80
2022/11/17 07:28:17;;;;;;;12.45;9.20;;;4.50;99.90;;;4.58;82.68;99859.84;5031969;28;20221;-80
2022/11/17 07:30:47;;;;;;;11.32;9.27;;;4.60;50.70;;;4.57;82.61;99869.75;5045089;28;20209;-81
2022/11/17 07:33:22;;;;;;;11.63;9.45;;;4.60;1.00;;;4.60;82.39;99871.22;5030592;28;20186;-81
2022/11/17 07:35:51;;;;;;;13.13;9.75;;;4.60;1.00;;;4.60;82.30;99855.94;5049404;28;20182;-80
2022/11/17 07:38:23;;;;;;;12.95;9.38;;;4.60;1.00;;;4.70;81.93;99866.38;5039158;28;20216;-83
2022/11/17 07:40:57;;;;;;;15.30;8.93;;;4.60;1.00;;;4.79;81.21;99874.09;5036921;28;21064;-80
2022/11/17 07:43:26;;;;;;;9.32;6.43;;;4.70;1.00;;;4.67;80.94;99864.91;5036870;28;20193;-82
2022/11/17 07:45:54;;;;;;;12.77;8.95;;;4.70;1.00;;;4.66;81.59;99881.16;5036271;28;20224;-82
2022/11/17 07:48:23;;;;;;;14.63;11.00;;;4.70;1.00;;;4.76;81.22;99877.19;5036984;28;20710;-83
2022/11/17 07:50:52;;;;;;;10.85;9.02;;;4.70;1.00;;;4.72;81.05;99875.91;5036950;28;20212;-82
2022/11/17 07:53:22;;;;;;;14.70;8.77;;;4.70;1.00;;;4.68;80.52;99871.09;5036863;28;20248;-80
2022/11/17 07:55:51;;;;;;;12.63;7.45;;;4.70;1.00;;;4.72;80.58;99881.25;5037743;28;20170;-81
2022/11/17 07:58:20;;;;;;;14.45;8.77;;;4.70;1.00;;;4.78;80.52;99885.03;5037670;28;20699;-80
2022/11/17 08:00:48;;;;;;;10.85;7.80;;;4.70;1.00;;;4.71;80.33;99882.28;5037638;28;20235;-80
2022/11/17 08:03:17;;;;;;;13.10;8.38;;;4.70;1.00;;;4.69;80.30;99865.56;5038063;28;20192;-79
2022/11/17 08:05:47;;;;;;;12.30;9.23;;;4.70;1.00;;;4.82;80.27;99881.78;5019000;28;20198;-81
2022/11/17 08:08:15;;;;;;;15.90;8.02;;;4.80;1.00;;;4.86;79.66;99874.19;5033596;23;20238;-73
2022/11/17 08:10:46;;;;;;;14.25;9.18;;;4.80;1.00;;;4.89;79.81;99878.34;5061143;28;20180;-72
2022/11/17 08:13:14;;;;;;;13.90;7.70;;;4.80;1.00;;;4.89;79.39;99875.69;5064187;28;20236;-72
2022/11/17 08:15:43;;;;;;;11.75;8.10;;;4.80;1.00;;;4.92;79.17;99869.91;5066553;28;20311;-73
2022/11/17 08:18:12;;;;;;;14.40;8.38;;;4.90;99.90;;;4.91;79.44;99873.63;5068618;28;20192;-73
2022/11/17 08:20:52;;;;;;;12.45;9.18;;;4.90;99.90;;;4.88;79.02;99858.75;5113066;22;20543;31
2022/11/17 08:23:23;;;;;;;15.98;9.82;;;4.90;99.90;;;4.90;78.99;99866.59;4971135;28;20219;-72
2022/11/17 08:25:54;;;;;;;12.85;8.20;;;4.90;99.90;;;4.87;78.97;99864.31;4941862;28;20232;-74
2022/11/17 08:28:23;;;;;;;10.68;7.75;;;4.90;99.90;;;4.88;79.36;99863.28;4935884;28;20576;-74
2022/11/17 08:30:52;;;;;;;14.57;7.90;;;4.80;99.90;;;4.85;79.01;99859.13;4944710;28;20217;-74
2022/11/17 08:33:21;;;;;;;13.73;8.52;;;4.90;99.90;;;4.90;79.04;99856.69;4957171;28;20202;-73
2022/11/17 08:35:50;;;;;;;15.15;8.68;;;4.80;99.90;;;4.98;79.02;99858.44;4936945;28;20618;-74
2022/11/17 08:38:19;;;;;;;15.27;10.80;;;4.90;99.90;;;4.98;78.45;99859.28;4928258;28;20196;-73
2022/11/17 08:40:47;;;;;;;12.18;7.53;;;4.90;99.90;;;4.98;78.65;99855.75;4968281;28;20312;-74
2022/11/17 08:43:18;;;;;;;13.68;9.02;;;4.90;99.90;;;4.97;78.79;99856.78;4949121;28;20246;-75
2022/11/17 08:45:49;;;;;;;13.23;9.40;;;5.00;99.90;;;4.91;79.01;99853.00;4943754;28;21051;-75
2022/11/17 08:48:17;;;;;;;14.77;9.80;;;4.90;99.90;;;5.01;78.96;99841.97;4986891;28;20189;-72
2022/11/17 08:50:47;;;;;;;15.65;11.13;;;4.90;99.90;;;4.96;78.91;99855.94;4952595;28;20600;-73
2022/11/17 08:53:18;;;;;;;11.73;8.60;;;5.00;99.90;;;4.93;78.66;99850.13;4964129;28;20221;-74
2022/11/17 08:55:47;;;;;;;15.30;9.38;;;4.90;99.90;;;4.97;79.16;99840.69;4937987;28;20192;-73
2022/11/17 08:58:18;;;;;;;13.50;10.00;;;4.90;99.90;;;5.03;78.81;99846.13;4957284;28;20775;-74
2022/11/17 09:00:47;;;;;;;14.05;9.40;;;5.00;99.90;;;5.08;78.62;99848.22;4957487;28;20217;-74
2022/11/17 09:03:16;;;;;;;11.75;8.20;;;5.00;99.90;;;5.11;78.54;99843.31;4960335;28;20227;-74
2022/11/17 09:05:47;;;;;;;11.98;8.48;;;5.10;99.90;;;5.11;78.58;99834.44;4982687;28;20190;-75
2022/11/17 09:08:17;;;;;;;13.80;9.60;;;5.10;99.90;;;5.16;78.29;99840.03;4954992;28;20204;-74
2022/11/17 09:11:08;;;;;;;21.88;9.90;;;5.10;99.90;;;5.13;78.40;99843.94;4997644;28;20224;-74
2022/11/17 09:13:39;;;;;;;15.60;10.02;;;5.10;99.90;;;5.08;78.76;99854.41;4965092;28;20739;-73
2022/11/17 09:16:11;;;;;;;12.00;8.25;;;5.10;99.90;;;5.03;79.04;99856.84;4955766;28;20672;-75
2022/11/17 09:18:41;;;;;;;12.18;8.30;;;5.00;99.90;;;5.07;78.67;99863.47;4983565;28;20221;-73
2022/11/17 09:21:15;;;;;;;14.15;8.80;;;5.00;99.90;;;5.11;78.91;99869.28;4963471;28;20595;-75
2022/11/17 09:23:44;;;;;;;17.30;9.43;;;5.10;99.90;;;5.05;78.75;99867.38;4948092;28;20212;-74
2022/11/17 09:26:15;;;;;;;14.90;9.32;;;5.10;99.90;;;5.08;79.15;99869.69;4965981;28;20194;-75
2022/11/17 09:28:46;;;;;;;17.88;10.02;;;5.10;99.90;;;5.14;78.74;99868.88;4953090;28;20207;-77
2022/11/17 09:31:19;;;;;;;14.65;10.60;;;5.10;99.90;;;5.08;79.10;99867.81;4947802;28;20271;-75
2022/11/17 09:33:49;;;;;;;14.93;8.80;;;5.10;99.90;;;5.13;78.86;99878.78;4966710;28;20766;-74
2022/11/17 09:36:20;;;;;;;15.63;10.48;;;5.10;99.90;;;5.08;79.18;99867.00;4966836;28;20668;-75
2022/11/17 09:38:49;;;;;;;14.85;10.10;;;5.10;99.90;;;5.12;78.87;99866.41;4935161;28;20268;-73
2022/11/17 09:41:27;;;;;;;13.05;9.57;;;5.10;99.90;;;5.25;78.43;99860.34;4968743;28;20220;-74
2022/11/17 09:44:15;;;;;;;10.35;7.95;;;5.10;99.90;;;5.15;78.79;99859.84;4971753;28;20203;-74
2022/11/17 09:47:03;;;;;;;12.65;7.75;;;5.10;99.90;;;5.06;79.01;99860.97;4949167;28;20595;-73
2022/11/17 09:49:45;;;;;;;15.50;10.20;;;5.10;99.90;;;5.09;79.14;99861.44;4944330;28;20184;-74
2022/11/17 09:52:23;;;;;;;15.90;8.25;;;5.10;99.90;;;5.09;79.25;99855.22;4951531;28;20227;-73
2022/11/17 09:54:57;;;;;;;13.52;9.43;;;5.00;99.90;;;5.07;79.10;99849.25;4944598;28;20197;-75
2022/11/17 09:57:37;;;;;;;17.00;9.68;;;5.10;99.90;;;5.03;79.16;99851.50;4960201;28;20280;-73
2022/11/17 10:00:15;;;;;;;12.10;8.05;;;5.00;99.90;;;5.03;79.44;99851.50;4951415;28;20178;-76
2022/11/17 10:02:53;;;;;;;13.10;9.25;;;5.00;1.00;;;5.03;79.55;99850.66;4946745;28;20758;-76
2022/11/17 10:05:29;;;;;;;14.70;9.98;;;5.00;1.00;;;5.03;79.39;99848.81;4935454;28;20720;-74
2022/11/17 10:08:07;;;;;;;10.30;9.20;;;5.00;1.00;;;5.15;79.35;99854.47;4935074;28;20651;-74
2022/11/17 10:10:43;;;;;;;18.08;9.77;;;5.10;1.00;;;5.15;79.04;99851.78;4934916;28;20204;-74
2022/11/17 10:13:23;;;;;;;14.63;10.23;;;5.10;1.00;;;5.23;78.80;99851.66;4934024;28;20255;-75
2022/11/17 10:15:59;;;;;;;11.82;8.18;;;5.10;1.00;;;5.13;78.90;99853.84;4990269;28;20255;-73
2022/11/17 10:18:30;;;;;;;13.38;9.52;;;5.10;99.90;;;5.10;79.31;99841.63;4935272;29;20259;-73
2022/11/17 10:21:08;;;;;;;18.08;10.50;;;5.10;1.00;;;5.17;79.22;99845.22;4935298;28;20212;-74
2022/11/17 10:23:40;;;;;;;13.13;8.80;;;5.10;1.00;;;5.17;78.85;99836.34;4935508;29;20251;-74
2022/11/17 10:26:16;;;;;;;20.13;10.05;;;5.10;1.00;;;5.18;79.14;99841.50;4935788;29;20718;-73
2022/11/17 10:28:47;;;;;;;13.75;8.77;;;5.10;1.00;;;5.21;79.08;99829.56;4936954;28;20207;-73
2022/11/17 10:31:19;;;;;;;15.68;10.95;;;5.20;1.00;;;5.30;78.57;99831.09;4943915;28;20263;-74
2022/11/17 10:33:51;;;;;;;12.07;8.40;;;5.20;1.00;;;5.38;78.39;99830.94;4999490;28;20587;-73
2022/11/17 10:36:28;;;;;;;10.75;8.35;;;5.30;99.90;;;5.29;78.43;99829.41;4969923;28;20213;-73
2022/11/17 10:39:01;;;;;;;10.27;7.90;;;5.30;99.90;;;5.31;77.99;99827.38;4975145;28;20193;-74
2022/11/17 10:42:27;;;;;;;15.15;8.90;;;5.30;99.90;;;5.31;78.21;99826.56;5017031;28;20278;-73
2022/11/17 10:45:02;;;;;;;15.88;8.45;;;5.30;99.90;;;5.27;78.03;99819.91;4923907;28;20209;-74
2022/11/17 10:47:40;;;;;;;13.43;8.52;;;5.20;99.90;;;5.28;78.45;99822.38;4998033;28;20668;-75
2022/11/17 10:50:26;;;;;;;13.00;8.05;;;5.30;99.90;;;5.28;78.61;99822.38;4959952;28;20208;-74
2022/11/17 10:53:31;;;;;;;15.60;10.48;;;5.30;99.90;;;5.33;78.56;99808.38;4996070;28;20219;-74
2022/11/17 10:56:13;;;;;;;15.73;9.52;;;5.30;99.90;;;5.38;78.37;99811.31;4918150;28;20200;-73
2022/11/17 10:59:01;;;;;;;13.02;9.15;;;5.30;99.90;;;5.38;78.15;99806.78;4936322;29;20244;-74
2022/11/17 11:01:35;;;;;;;11.68;7.35;;;5.40;99.90;;;5.35;77.82;99807.19;4963390;28;20224;-74
2022/11/17 11:04:26;;;;;;;13.48;8.40;;;5.40;99.90;;;5.32;78.03;99804.06;4917673;28;20189;-75
2022/11/17 11:11:08;;;;;;;11.13;8.20;;;5.20;99.90;;;5.27;78.70;99777.84;4959820;28;20227;-73
2022/11/17 11:13:47;;;;;;;14.70;8.85;;;5.20;99.90;;;5.30;78.39;99776.59;4932740;28;20224;-74
2022/11/17 11:16:18;;;;;;;10.32;7.10;;;5.20;99.90;;;5.26;78.46;99770.81;4933029;29;20200;-73
2022/11/17 11:18:52;;;;;;;7.82;6.10;;;5.20;99.90;;;5.36;78.30;99784.72;4934229;28;20205;-73
2022/11/17 11:21:47;;;;;;;12.43;7.05;;;5.30;99.90;;;5.26;78.10;99781.53;4931862;28;20651;-74
2022/11/17 11:24:29;;;;;;;11.10;7.45;;;5.30;99.90;;;5.26;78.22;99773.50;4997708;28;20235;-72
2022/11/17 11:27:18;;;;;;;14.32;9.60;;;5.20;99.90;;;5.23;78.38;99763.97;4942737;28;20200;-73
2022/11/17 11:30:02;;;;;;;9.43;7.70;;;5.20;99.90;;;5.33;78.21;99771.66;4978969;28;20197;-75
2022/11/17 11:32:48;;;;;;;15.88;9.65;;;5.30;99.90;;;5.33;78.06;99782.41;4948927;28;20213;-73
2022/11/17 11:35:55;;;;;;;13.40;8.60;;;5.30;99.90;;;5.30;78.31;99774.75;4914207;28;20203;-74
2022/11/17 11:38:46;;;;;;;10.00;7.10;;;5.30;99.90;;;5.34;77.99;99762.59;4966081;28;20192;-73
2022/11/17 11:41:35;;;;;;;16.40;8.43;;;5.30;99.90;;;5.41;77.59;99758.13;4931473;28;20315;-74
2022/11/17 11:44:39;;;;;;;10.18;7.15;;;5.40;99.90;;;5.36;77.21;99760.56;4948429;28;20231;-72
2022/11/17 11:47:29;;;;;;;14.10;9.57;;;5.40;99.90;;;5.33;77.46;99760.94;4939048;28;20595;-73
2022/11/17 11:50:10;;;;;;;13.25;7.85;;;5.30;99.90;;;5.33;77.90;99746.69;4956002;28;20561;-73
2022/11/17 11:52:48;;;;;;;11.23;6.82;;;5.30;99.90;;;5.35;77.76;99758.91;4932424;28;20273;-76